createdAt,value
2024-01-01T00:00:17.526Z,10.60
2024-01-01T00:02:22.768Z,10.50
2024-01-01T00:04:31.235Z,10.60
2024-01-01T00:06:37.218Z,10.50
2024-01-01T00:08:47.773Z,10.50
2024-01-01T00:10:52.305Z,10.50
2024-01-01T00:12:55.921Z,10.50
2024-01-01T00:15:01.700Z,10.50
2024-01-01T00:28:52.819Z,10.80
2024-01-01T00:30:55.443Z,10.80
2024-01-01T00:33:01.776Z,10.90
2024-01-01T00:35:07.478Z,10.90
2024-01-01T00:37:11.065Z,10.90
2024-01-01T00:39:14.675Z,10.90
2024-01-01T00:41:18.360Z,10.90
2024-01-01T00:46:06.149Z,10.90
2024-01-01T00:48:09.537Z,11.00
2024-01-01T00:50:13.813Z,11.00
2024-01-01T00:52:19.563Z,11.00
2024-01-01T00:54:40.890Z,10.90
2024-01-01T00:56:44.382Z,10.90
2024-01-01T00:58:48.156Z,10.90
2024-01-01T01:00:51.773Z,11.00
2024-01-01T01:02:56.801Z,11.10
2024-01-01T01:05:06.232Z,11.10
2024-01-01T01:07:11.050Z,11.20
2024-01-01T01:09:14.570Z,11.20
2024-01-01T01:11:20.048Z,11.30
2024-01-01T01:13:23.901Z,11.20
2024-01-01T01:15:28.017Z,11.30
2024-01-01T01:17:31.416Z,11.20
2024-01-01T01:19:36.999Z,11.20
2024-01-01T01:21:40.468Z,11.20
2024-01-01T01:23:44.474Z,11.20
2024-01-01T01:25:47.943Z,11.20
2024-01-01T01:27:53.486Z,11.20
2024-01-01T01:29:56.863Z,11.20
2024-01-01T01:31:59.305Z,11.20
2024-01-01T01:34:02.794Z,11.20
2024-01-01T01:36:10.151Z,11.10
2024-01-01T01:38:13.850Z,11.10
2024-01-01T01:40:17.617Z,11.00
2024-01-01T01:42:21.200Z,11.00
2024-01-01T01:44:24.750Z,11.00
2024-01-01T01:46:29.320Z,11.00
2024-01-01T01:48:33.497Z,11.00
2024-01-01T01:50:37.048Z,11.00
2024-01-01T01:52:42.213Z,11.00
2024-01-01T01:54:46.659Z,11.00
2024-01-01T01:56:49.158Z,11.00
2024-01-01T01:58:52.630Z,10.90
2024-01-01T02:00:57.146Z,10.90
2024-01-01T02:03:00.928Z,10.90
2024-01-01T02:05:05.465Z,10.80
2024-01-01T02:07:09.167Z,10.70
2024-01-01T02:09:15.101Z,10.70
2024-01-01T02:11:20.346Z,10.60
2024-01-01T02:13:26.105Z,10.60
2024-01-01T02:15:29.762Z,10.50
2024-01-01T02:17:33.244Z,10.50
2024-01-01T02:19:39.199Z,10.50
2024-01-01T02:21:43.133Z,10.60
2024-01-01T02:23:50.986Z,10.70
2024-01-01T02:25:55.307Z,10.60
2024-01-01T02:27:59.131Z,10.60
2024-01-01T02:30:02.646Z,10.60
2024-01-01T02:32:06.584Z,10.70
2024-01-01T02:34:11.667Z,10.70
2024-01-01T02:36:15.498Z,10.80
2024-01-01T02:38:19.319Z,10.80
2024-01-01T02:40:23.384Z,10.80
2024-01-01T02:42:26.941Z,10.80
2024-01-01T02:44:30.465Z,10.80
2024-01-01T02:46:34.265Z,10.80
2024-01-01T02:48:38.043Z,10.70
2024-01-01T02:55:20.985Z,10.80
2024-01-01T02:57:26.562Z,10.80
2024-01-01T02:59:32.458Z,10.80
2024-01-01T03:01:35.049Z,10.90
2024-01-01T03:03:41.093Z,10.80
2024-01-01T03:05:45.186Z,10.90
2024-01-01T03:07:48.202Z,11.00
2024-01-01T03:09:51.989Z,11.00
2024-01-01T03:11:55.639Z,11.00
2024-01-01T03:14:00.645Z,11.10
2024-01-01T03:21:05.988Z,11.20
2024-01-01T03:23:09.399Z,11.20
2024-01-01T03:25:12.763Z,11.20
2024-01-01T03:27:16.475Z,11.20
2024-01-01T03:29:21.570Z,11.20
2024-01-01T03:31:25.188Z,11.10
2024-01-01T03:33:28.649Z,11.10
2024-01-01T03:35:32.956Z,11.00
2024-01-01T03:37:36.329Z,11.00
2024-01-01T03:39:39.712Z,11.00
2024-01-01T03:49:24.153Z,11.20
2024-01-01T03:51:26.661Z,11.30
2024-01-01T03:53:30.169Z,11.30
2024-01-01T03:55:34.251Z,11.30
2024-01-01T03:57:37.799Z,11.30
2024-01-01T03:59:41.241Z,11.20
2024-01-01T04:01:45.117Z,11.30
2024-01-01T04:03:48.739Z,11.30
2024-01-01T04:05:53.559Z,11.40
2024-01-01T04:07:57.044Z,11.40
2024-01-01T04:24:54.247Z,11.40
2024-01-01T04:26:57.621Z,11.40
2024-01-01T04:29:01.036Z,11.40
2024-01-01T04:31:05.353Z,11.40
2024-01-01T04:33:08.816Z,11.40
2024-01-01T04:35:12.427Z,11.40
2024-01-01T04:37:15.882Z,11.50
2024-01-01T04:39:19.192Z,11.50
2024-01-01T04:41:24.026Z,11.50
2024-01-01T04:43:28.027Z,11.50
2024-01-01T04:45:32.701Z,11.50
2024-01-01T04:47:36.079Z,11.50
2024-01-01T04:49:39.520Z,11.50
2024-01-01T04:51:43.050Z,11.50
2024-01-01T04:53:46.343Z,11.50
2024-01-01T04:55:49.670Z,11.50
2024-01-01T05:03:18.757Z,11.40
2024-01-01T05:05:23.712Z,11.30
2024-01-01T05:07:27.009Z,11.30
2024-01-01T05:09:30.452Z,11.30
2024-01-01T05:11:34.803Z,11.40
2024-01-01T05:13:38.763Z,11.30
2024-01-01T05:15:44.288Z,11.40
2024-01-01T05:17:47.712Z,11.30
2024-01-01T05:19:51.803Z,11.20
2024-01-01T05:21:56.633Z,11.20
2024-01-01T05:36:14.674Z,11.00
2024-01-01T05:38:20.867Z,10.90
2024-01-01T05:40:24.444Z,11.00
2024-01-01T05:42:29.473Z,10.90
2024-01-01T05:44:32.742Z,10.80
2024-01-01T05:46:36.085Z,10.70
2024-01-01T05:48:41.215Z,10.70
2024-01-01T05:50:44.418Z,10.80
2024-01-01T05:52:47.914Z,10.80
2024-01-01T06:03:10.851Z,10.60
2024-01-01T06:05:14.468Z,10.50
2024-01-01T06:07:17.845Z,10.50
2024-01-01T06:09:21.408Z,10.50
2024-01-01T06:11:24.709Z,10.50
2024-01-01T06:13:27.179Z,10.40
2024-01-01T06:15:30.611Z,10.50
2024-01-01T06:17:34.115Z,10.50
2024-01-01T06:19:39.577Z,10.50
2024-01-01T06:21:43.172Z,10.50
2024-01-01T06:23:47.986Z,10.40
2024-01-01T06:25:53.612Z,10.40
2024-01-01T06:27:57.225Z,10.40
2024-01-01T06:30:01.080Z,10.30
2024-01-01T06:32:04.776Z,10.30
2024-01-01T06:34:08.280Z,10.30
2024-01-01T06:36:13.310Z,10.20
2024-01-01T06:38:16.931Z,10.20
2024-01-01T06:40:20.577Z,10.30
2024-01-01T06:42:24.089Z,10.30
2024-01-01T06:44:28.661Z,10.20
2024-01-01T06:46:32.429Z,10.30
2024-01-01T06:48:36.191Z,10.30
2024-01-01T06:50:39.726Z,10.40
2024-01-01T06:52:44.754Z,10.50
2024-01-01T06:54:48.993Z,10.50
2024-01-01T06:56:52.816Z,10.60
2024-01-01T06:58:56.360Z,10.60
2024-01-01T07:00:59.884Z,10.60
2024-01-01T07:03:04.187Z,10.50
2024-01-01T07:05:08.894Z,10.50
2024-01-01T07:07:12.832Z,10.50
2024-01-01T07:09:17.809Z,10.50
2024-01-01T07:11:21.506Z,10.40
2024-01-01T07:13:29.051Z,10.30
2024-01-01T07:15:32.507Z,10.30
2024-01-01T07:17:36.487Z,10.30
2024-01-01T07:19:40.645Z,10.30
2024-01-01T07:21:44.196Z,10.30
2024-01-01T07:23:47.825Z,10.30
2024-01-01T07:25:52.923Z,10.30
2024-01-01T07:27:56.233Z,10.30
2024-01-01T07:29:59.847Z,10.30
2024-01-01T07:32:02.288Z,10.20
2024-01-01T07:34:06.710Z,10.20
2024-01-01T07:36:12.724Z,10.10
2024-01-01T07:38:16.493Z,10.10
2024-01-01T07:40:20.184Z,10.00
2024-01-01T07:42:26.680Z,10.00
2024-01-01T07:44:32.141Z,9.90
2024-01-01T07:46:35.007Z,10.00
2024-01-01T07:48:39.238Z,10.00
2024-01-01T07:50:42.904Z,10.00
2024-01-01T07:52:46.608Z,10.10
2024-01-01T07:54:56.360Z,10.20
2024-01-01T07:56:59.964Z,10.20
2024-01-01T07:59:05.367Z,10.20
2024-01-01T08:01:09.081Z,10.40
2024-01-01T08:03:15.076Z,10.40
2024-01-01T08:05:18.942Z,10.50
2024-01-01T08:07:21.863Z,10.40
2024-01-01T08:09:25.846Z,10.40
2024-01-01T08:11:29.314Z,10.50
2024-01-01T08:13:32.791Z,10.60
2024-01-01T08:15:37.543Z,10.80
2024-01-01T08:17:41.449Z,10.90
2024-01-01T08:19:45.060Z,11.00
2024-01-01T08:21:51.459Z,11.20
2024-01-01T08:23:55.831Z,11.30
2024-01-01T08:25:59.930Z,11.40
2024-01-01T08:28:03.972Z,11.40
2024-01-01T08:30:08.148Z,11.30
2024-01-01T08:32:13.023Z,11.30
2024-01-01T08:34:16.626Z,11.30
2024-01-01T08:36:21.314Z,11.30
2024-01-01T08:38:26.321Z,11.30
2024-01-01T08:40:30.004Z,11.20
2024-01-01T08:42:33.559Z,11.20
2024-01-01T08:44:37.291Z,11.20
2024-01-01T08:46:41.336Z,11.10
2024-01-01T08:48:46.673Z,11.10
2024-01-01T08:50:49.397Z,11.20
2024-01-01T08:52:52.943Z,11.20
2024-01-01T08:54:56.650Z,11.20
2024-01-01T08:57:00.212Z,11.20
2024-01-01T08:59:04.233Z,11.30
2024-01-01T09:01:08.490Z,11.40
2024-01-01T09:03:11.153Z,11.60
2024-01-01T09:05:17.493Z,11.80
2024-01-01T09:07:22.049Z,12.10
2024-01-01T09:09:25.729Z,12.30
2024-01-01T09:11:29.333Z,12.30
2024-01-01T09:13:33.025Z,12.30
2024-01-01T09:15:36.518Z,12.30
2024-01-01T09:17:39.566Z,12.20
2024-01-01T09:19:43.112Z,12.20
2024-01-01T09:21:48.055Z,12.30
2024-01-01T09:23:51.578Z,12.30
2024-01-01T09:25:55.766Z,12.30
2024-01-01T09:27:59.638Z,12.40
2024-01-01T09:30:02.077Z,12.50
2024-01-01T09:32:06.537Z,12.60
2024-01-01T09:34:10.379Z,12.60
2024-01-01T09:36:14.713Z,12.50
2024-01-01T09:38:20.043Z,12.40
2024-01-01T09:40:23.492Z,12.30
2024-01-01T09:42:26.918Z,12.30
2024-01-01T09:44:29.525Z,12.20
2024-01-01T09:46:34.488Z,12.10
2024-01-01T09:48:38.362Z,12.10
2024-01-01T09:50:41.802Z,12.00
2024-01-01T09:52:45.826Z,12.00
2024-01-01T09:54:51.083Z,11.80
2024-01-01T09:56:53.802Z,11.70
2024-01-01T09:58:58.973Z,11.70
2024-01-01T10:01:11.933Z,11.60
2024-01-01T10:03:15.395Z,11.60
2024-01-01T10:05:22.926Z,11.70
2024-01-01T10:07:29.187Z,11.70
2024-01-01T10:09:34.202Z,11.70
2024-01-01T10:11:42.892Z,11.70
2024-01-01T10:13:45.444Z,11.70
2024-01-01T10:15:49.228Z,11.70
2024-01-01T10:17:52.932Z,11.70
2024-01-01T10:19:57.566Z,11.70
2024-01-01T10:22:01.188Z,11.70
2024-01-01T10:24:26.005Z,11.70
2024-01-01T10:31:16.714Z,11.70
2024-01-01T10:33:23.492Z,11.70
2024-01-01T10:35:26.940Z,11.70
2024-01-01T10:37:29.542Z,11.70
2024-01-01T10:39:33.714Z,11.60
2024-01-01T10:41:38.239Z,11.50
2024-01-01T10:43:42.225Z,11.50
2024-01-01T10:45:45.585Z,11.50
2024-01-01T10:47:49.105Z,11.50
2024-01-01T10:49:53.688Z,11.50
2024-01-01T10:52:03.250Z,11.60
2024-01-01T10:54:55.801Z,11.60
2024-01-01T10:57:04.085Z,11.70
2024-01-01T10:59:11.508Z,11.80
2024-01-01T11:01:16.190Z,11.70
2024-01-01T11:03:19.996Z,11.80
2024-01-01T11:05:33.185Z,11.90
2024-01-01T11:07:58.696Z,11.80
2024-01-01T11:10:05.423Z,11.90
2024-01-01T11:12:11.476Z,11.90
2024-01-01T11:14:25.982Z,12.00
2024-01-01T11:16:29.620Z,12.00
2024-01-01T11:18:33.414Z,12.00
2024-01-01T11:20:59.579Z,12.00
2024-01-01T11:23:02.066Z,12.00
2024-01-01T11:25:06.185Z,12.10
2024-01-01T11:27:23.873Z,12.00
2024-01-01T11:33:29.837Z,12.10
2024-01-01T11:35:33.476Z,12.10
2024-01-01T11:37:38.701Z,12.20
2024-01-01T11:39:42.373Z,12.20
2024-01-01T11:41:46.246Z,12.20
2024-01-01T11:43:48.682Z,12.20
2024-01-01T11:46:02.388Z,12.20
2024-01-01T11:48:07.120Z,12.30
2024-01-01T11:50:11.587Z,12.40
2024-01-01T11:52:15.157Z,12.50
2024-01-01T11:54:20.181Z,12.60
2024-01-01T11:56:22.967Z,12.70
2024-01-01T11:58:26.870Z,12.70
2024-01-01T12:00:30.814Z,12.70
2024-01-01T12:02:34.950Z,12.70
2024-01-01T12:04:40.957Z,12.80
2024-01-01T12:06:44.763Z,12.80
2024-01-01T12:08:47.259Z,12.80
2024-01-01T12:11:00.025Z,12.80
2024-01-01T12:13:04.940Z,12.70
2024-01-01T12:15:13.419Z,12.70
2024-01-01T12:17:18.716Z,12.60
2024-01-01T12:19:24.765Z,12.60
2024-01-01T12:21:38.796Z,12.60
2024-01-01T12:23:42.629Z,12.60
2024-01-01T12:25:46.639Z,12.60
2024-01-01T12:28:08.071Z,12.50
2024-01-01T12:30:15.683Z,12.60
2024-01-01T12:32:20.544Z,12.50
2024-01-01T12:34:26.340Z,12.40
2024-01-01T12:36:29.214Z,12.40
2024-01-01T12:38:32.773Z,12.30
2024-01-01T12:40:37.301Z,12.30
2024-01-01T12:42:40.339Z,12.30
2024-01-01T12:44:46.213Z,12.20
2024-01-01T12:46:50.558Z,12.10
2024-01-01T12:48:54.934Z,12.00
2024-01-01T12:50:59.251Z,11.90
2024-01-01T12:53:02.957Z,11.80
2024-01-01T12:55:08.004Z,11.70
2024-01-01T12:57:11.859Z,11.70
2024-01-01T12:59:15.948Z,11.60
2024-01-01T13:01:22.410Z,11.50
2024-01-01T13:03:25.844Z,11.50
2024-01-01T13:05:33.836Z,11.50
2024-01-01T13:07:38.676Z,11.40
2024-01-01T13:09:42.687Z,11.50
2024-01-01T13:11:56.881Z,11.50
2024-01-01T13:14:00.699Z,11.50
2024-01-01T13:16:03.729Z,11.50
2024-01-01T13:18:14.257Z,11.60
2024-01-01T13:20:17.549Z,11.60
2024-01-01T13:22:24.669Z,11.70
2024-01-01T13:24:35.566Z,11.70
2024-01-01T13:26:39.907Z,11.80
2024-01-01T13:28:44.107Z,11.80
2024-01-01T13:30:47.852Z,11.80
2024-01-01T13:32:52.452Z,11.90
2024-01-01T13:34:56.694Z,11.90
2024-01-01T13:37:02.937Z,11.90
2024-01-01T13:39:09.470Z,12.10
2024-01-01T13:41:13.661Z,12.10
2024-01-01T13:43:20.306Z,12.20
2024-01-01T13:45:22.938Z,12.20
2024-01-01T13:47:26.790Z,12.20
2024-01-01T13:49:31.108Z,12.20
2024-01-01T13:51:36.160Z,12.30
2024-01-01T13:53:41.268Z,12.30
2024-01-01T13:55:45.043Z,12.20
2024-01-01T13:57:48.641Z,12.20
2024-01-01T13:59:52.399Z,12.20
2024-01-01T14:01:56.344Z,12.10
2024-01-01T14:04:00.663Z,12.10
2024-01-01T14:06:06.644Z,12.10
2024-01-01T14:08:11.905Z,12.10
2024-01-01T14:10:14.703Z,12.20
2024-01-01T14:12:18.330Z,12.20
2024-01-01T14:14:22.480Z,12.30
2024-01-01T14:16:26.112Z,12.30
2024-01-01T14:18:29.718Z,12.30
2024-01-01T14:20:33.194Z,12.30
2024-01-01T14:22:36.617Z,12.30
2024-01-01T14:24:42.336Z,12.30
2024-01-01T14:26:47.236Z,12.30
2024-01-01T14:28:54.931Z,12.20
2024-01-01T14:30:58.566Z,12.30
2024-01-01T14:33:03.257Z,12.30
2024-01-01T14:35:08.543Z,12.30
2024-01-01T14:37:11.595Z,12.30
2024-01-01T14:39:15.944Z,12.30
2024-01-01T14:41:19.754Z,12.30
2024-01-01T14:43:24.404Z,12.40
2024-01-01T14:45:28.247Z,12.30
2024-01-01T14:47:32.016Z,12.30
2024-01-01T14:49:34.963Z,12.30
2024-01-01T14:51:41.906Z,12.30
2024-01-01T14:53:45.535Z,12.30
2024-01-01T14:55:49.030Z,12.30
2024-01-01T14:57:55.065Z,12.30
2024-01-01T15:00:00.449Z,12.30
2024-01-01T15:02:04.209Z,12.20
2024-01-01T15:04:08.637Z,12.20
2024-01-01T15:06:12.151Z,12.20
2024-01-01T15:08:16.157Z,12.10
2024-01-01T15:10:20.028Z,12.00
2024-01-01T15:12:38.902Z,12.10
2024-01-01T15:14:43.663Z,12.00
2024-01-01T15:16:58.592Z,11.90
2024-01-01T15:19:02.731Z,11.80
2024-01-01T15:21:11.141Z,11.90
2024-01-01T15:23:15.879Z,11.90
2024-01-01T15:25:19.405Z,11.80
2024-01-01T15:27:22.766Z,11.90
2024-01-01T15:29:26.234Z,11.90
2024-01-01T15:31:31.135Z,11.80
2024-01-01T15:37:39.195Z,11.90
2024-01-01T15:39:44.159Z,11.90
2024-01-01T15:41:49.493Z,11.90
2024-01-01T15:43:53.728Z,11.90
2024-01-01T15:46:04.676Z,11.90
2024-01-01T15:48:11.035Z,11.90
2024-01-01T15:50:15.366Z,12.00
2024-01-01T15:52:18.950Z,11.90
2024-01-01T15:54:28.078Z,11.90
2024-01-01T15:56:34.942Z,11.90
2024-01-01T15:58:39.317Z,11.80
2024-01-01T16:00:43.630Z,11.70
2024-01-01T16:02:50.155Z,11.70
2024-01-01T16:04:55.368Z,11.70
2024-01-01T16:08:59.263Z,11.60
2024-01-01T16:11:01.822Z,11.50
2024-01-01T16:13:05.835Z,11.60
2024-01-01T16:15:10.184Z,11.60
2024-01-01T16:17:14.573Z,11.60
2024-01-01T16:19:23.372Z,11.60
2024-01-01T16:21:36.125Z,11.70
2024-01-01T16:23:40.097Z,11.70
2024-01-01T16:25:42.594Z,11.70
2024-01-01T16:27:46.218Z,11.70
2024-01-01T16:29:51.057Z,11.60
2024-01-01T16:31:54.973Z,11.70
2024-01-01T16:33:59.360Z,11.70
2024-01-01T16:36:04.477Z,11.70
2024-01-01T16:38:09.556Z,11.80
2024-01-01T16:40:15.610Z,11.80
2024-01-01T16:42:19.330Z,11.80
2024-01-01T16:44:22.506Z,11.80
2024-01-01T16:46:41.965Z,11.80
2024-01-01T16:48:57.488Z,11.80
2024-01-01T16:51:17.713Z,11.80
2024-01-01T16:53:41.132Z,11.70
2024-01-01T16:56:00.370Z,11.60
2024-01-01T16:58:04.631Z,11.70
2024-01-01T17:00:15.115Z,11.80
2024-01-01T17:02:27.533Z,11.80
2024-01-01T17:04:31.015Z,11.80
2024-01-01T17:06:34.600Z,11.70
2024-01-01T17:08:42.635Z,11.60
2024-01-01T17:10:49.097Z,11.70
2024-01-01T17:13:01.501Z,11.70
2024-01-01T17:15:22.778Z,11.70
2024-01-01T17:17:26.383Z,11.70
2024-01-01T17:19:30.114Z,11.80
2024-01-01T17:21:47.851Z,11.80
2024-01-01T17:23:52.865Z,11.80
2024-01-01T17:25:59.692Z,11.80
2024-01-01T17:45:32.232Z,11.80
2024-01-01T17:49:53.716Z,11.70
2024-01-01T17:51:57.902Z,11.70
2024-01-01T17:54:05.166Z,11.70
2024-01-01T17:56:22.665Z,11.70
2024-01-01T17:58:26.162Z,11.70
2024-01-01T18:00:31.118Z,11.70
2024-01-01T18:02:58.264Z,11.70
2024-01-01T18:05:05.445Z,11.70
2024-01-01T18:07:11.045Z,11.70
2024-01-01T18:09:14.900Z,11.70
2024-01-01T18:11:21.642Z,11.60
2024-01-01T18:13:33.940Z,11.70
2024-01-01T18:15:39.391Z,11.70
2024-01-01T18:17:43.375Z,11.70
2024-01-01T18:19:48.556Z,11.70
2024-01-01T18:26:09.982Z,11.60
2024-01-01T18:28:12.550Z,11.60
2024-01-01T18:30:17.220Z,11.50
2024-01-01T18:32:23.960Z,11.50
2024-01-01T18:34:27.558Z,11.50
2024-01-01T18:36:32.655Z,11.40
2024-01-01T18:38:35.517Z,11.30
2024-01-01T18:40:43.180Z,11.20
2024-01-01T18:42:47.278Z,11.20
2024-01-01T18:44:54.061Z,11.10
2024-01-01T18:47:00.089Z,11.00
2024-01-01T18:49:06.444Z,11.00
2024-01-01T18:51:10.886Z,10.90
2024-01-01T18:53:15.064Z,10.80
2024-01-01T18:55:19.389Z,10.80
2024-01-01T18:57:23.201Z,10.70
2024-01-01T18:59:27.013Z,10.70
2024-01-01T19:01:36.141Z,10.70
2024-01-01T19:03:40.009Z,10.60
2024-01-01T19:05:45.563Z,10.60
2024-01-01T19:07:51.697Z,10.60
2024-01-01T19:10:12.617Z,10.60
2024-01-01T19:12:16.265Z,10.60
2024-01-01T19:16:21.132Z,10.70
2024-01-01T19:18:25.806Z,10.70
2024-01-01T19:20:28.421Z,10.80
2024-01-01T19:22:33.522Z,10.80
2024-01-01T19:24:40.546Z,10.80
2024-01-01T19:26:45.043Z,10.90
2024-01-01T19:28:48.837Z,10.90
2024-01-01T19:30:56.251Z,10.90
2024-01-01T19:32:59.999Z,10.90
2024-01-01T19:35:03.967Z,11.00
2024-01-01T19:37:12.189Z,11.00
2024-01-01T19:39:18.675Z,11.10
2024-01-01T19:41:22.402Z,11.10
2024-01-01T19:43:26.198Z,11.10
2024-01-01T19:45:30.310Z,11.10
2024-01-01T19:47:34.346Z,11.10
2024-01-01T19:49:38.956Z,11.20
2024-01-01T19:51:42.765Z,11.20
2024-01-01T19:53:46.244Z,11.20
2024-01-01T19:55:52.009Z,11.30
2024-01-01T19:58:13.096Z,11.30
2024-01-01T20:00:43.841Z,11.20
2024-01-01T20:02:47.872Z,11.10
2024-01-01T20:04:50.599Z,11.00
2024-01-01T20:06:59.851Z,11.00
2024-01-01T20:09:05.833Z,11.00
2024-01-01T20:11:09.947Z,11.00
2024-01-01T20:13:13.404Z,11.00
2024-01-01T20:15:17.411Z,11.10
2024-01-01T20:17:20.956Z,11.10
2024-01-01T20:32:26.948Z,11.40
2024-01-01T20:34:33.710Z,11.40
2024-01-01T20:36:49.693Z,11.30
2024-01-01T20:38:53.499Z,11.30
2024-01-01T20:40:57.963Z,11.30
2024-01-01T20:43:02.797Z,11.30
2024-01-01T20:45:08.280Z,11.30
2024-01-01T20:47:13.346Z,11.40
2024-01-01T20:49:18.325Z,11.40
2024-01-01T20:51:20.956Z,11.30
2024-01-01T20:53:24.913Z,11.50
2024-01-01T20:55:28.414Z,11.50
2024-01-01T20:57:32.620Z,11.40
2024-01-01T20:59:36.343Z,11.40
2024-01-01T21:01:43.766Z,11.40
2024-01-01T21:03:46.679Z,11.40
2024-01-01T21:05:51.812Z,11.50
2024-01-01T21:07:55.598Z,11.50
2024-01-01T21:10:08.209Z,11.50
2024-01-01T21:12:11.867Z,11.50
2024-01-01T21:14:37.787Z,11.50
2024-01-01T21:16:40.927Z,11.50
2024-01-01T21:18:46.759Z,11.50
2024-01-01T21:20:51.988Z,11.50
2024-01-01T21:22:55.874Z,11.50
2024-01-01T21:24:59.895Z,11.60
2024-01-01T21:27:03.762Z,11.60
2024-01-01T21:29:08.250Z,11.50
2024-01-01T21:31:12.119Z,11.40
2024-01-01T21:33:16.245Z,11.30
2024-01-01T21:35:19.867Z,11.30
2024-01-01T21:37:25.312Z,11.30
2024-01-01T21:39:27.987Z,11.20
2024-01-01T21:41:32.001Z,11.20
2024-01-01T21:43:35.958Z,11.20
2024-01-01T21:45:40.642Z,11.20
2024-01-01T21:47:44.558Z,11.20
2024-01-01T21:49:48.955Z,11.30
2024-01-01T21:51:52.834Z,11.20
2024-01-01T21:53:59.767Z,11.20
2024-01-01T21:56:04.184Z,11.20
2024-01-01T21:58:08.251Z,11.30
2024-01-01T22:00:23.171Z,11.30
2024-01-01T22:02:29.278Z,11.30
2024-01-01T22:04:33.045Z,11.30
2024-01-01T22:08:48.452Z,11.40
2024-01-01T22:10:53.671Z,11.40
2024-01-01T22:12:59.270Z,11.50
2024-01-01T22:15:05.376Z,11.50
2024-01-01T22:17:09.574Z,11.40
2024-01-01T22:19:17.181Z,11.40
2024-01-01T22:21:20.854Z,11.40
2024-01-01T22:23:24.599Z,11.30
2024-01-01T22:25:27.753Z,11.30
2024-01-01T22:27:33.223Z,11.30
2024-01-01T22:29:37.654Z,11.10
2024-01-01T22:31:42.331Z,11.10
2024-01-01T22:33:48.667Z,11.20
2024-01-01T22:35:52.592Z,11.10
2024-01-01T22:37:56.277Z,11.10
2024-01-01T22:39:59.125Z,11.00
2024-01-01T22:42:03.208Z,11.10
2024-01-01T22:44:08.676Z,11.00
2024-01-01T22:46:12.323Z,10.90
2024-01-01T22:48:16.633Z,10.90
2024-01-01T22:50:21.029Z,10.80
2024-01-01T22:52:26.174Z,10.80
2024-01-01T22:54:32.120Z,10.70
2024-01-01T22:56:35.936Z,10.70
2024-01-01T22:58:40.720Z,10.70
2024-01-01T23:00:46.204Z,10.70
2024-01-01T23:02:51.730Z,10.60
2024-01-01T23:05:02.551Z,10.60
2024-01-01T23:07:07.085Z,10.60
2024-01-01T23:09:11.591Z,10.60
2024-01-01T23:11:17.549Z,10.60
2024-01-01T23:13:21.528Z,10.60
2024-01-01T23:15:26.898Z,10.70
2024-01-01T23:17:32.318Z,10.70
2024-01-01T23:19:37.367Z,10.70
2024-01-01T23:21:44.775Z,10.60
2024-01-01T23:23:48.740Z,10.60
2024-01-01T23:25:53.203Z,10.50
2024-01-01T23:27:56.778Z,10.50
2024-01-01T23:30:00.421Z,10.50
2024-01-01T23:32:04.657Z,10.50
2024-01-01T23:34:14.697Z,10.40
2024-01-01T23:36:19.766Z,10.40
2024-01-01T23:38:23.806Z,10.40
2024-01-01T23:40:27.723Z,10.40
2024-01-01T23:42:30.124Z,10.30
2024-01-01T23:44:34.039Z,10.40
2024-01-01T23:46:38.503Z,10.40
2024-01-01T23:48:42.788Z,10.40
2024-01-01T23:50:48.794Z,10.40
2024-01-01T23:52:52.563Z,10.40
2024-01-01T23:54:56.691Z,10.40
2024-01-01T23:57:01.133Z,10.40
2024-01-01T23:59:05.870Z,10.50
